createdAt,value
2019-05-29T00:00:53.645Z,72.71
2019-05-29T00:01:57.930Z,72.88
2019-05-29T00:03:02.250Z,72.33
2019-05-29T00:04:06.569Z,72.28
2019-05-29T00:05:11.991Z,72.18
2019-05-29T00:06:15.188Z,73.17
2019-05-29T00:07:19.490Z,72.69
2019-05-29T00:08:23.935Z,72.96
2019-05-29T00:09:28.219Z,72.75
2019-05-29T00:10:32.511Z,73.03
2019-05-29T00:11:36.898Z,73.34
2019-05-29T00:12:41.147Z,73.41
2019-05-29T00:13:45.446Z,72.54
2019-05-29T00:14:49.747Z,73.33
2019-05-29T00:15:53.927Z,73.47
2019-05-29T00:16:58.282Z,73.60
2019-05-29T00:18:02.575Z,72.80
2019-05-29T00:19:07.009Z,73.74
2019-05-29T00:20:12.347Z,73.88
2019-05-29T00:21:15.561Z,73.85
2019-05-29T00:22:19.799Z,74.05
2019-05-29T00:23:24.187Z,74.23
2019-05-29T00:24:28.442Z,74.45
2019-05-29T00:25:32.739Z,74.15
2019-05-29T00:26:37.010Z,73.80
2019-05-29T00:27:41.390Z,73.92
2019-05-29T00:28:45.613Z,73.72
2019-05-29T00:29:49.999Z,73.70
2019-05-29T00:30:54.263Z,73.65
2019-05-29T00:31:58.560Z,73.83
2019-05-29T00:33:02.961Z,73.70
2019-05-29T00:34:07.184Z,73.81
2019-05-29T00:35:12.274Z,73.66
2019-05-29T00:36:16.502Z,73.60
2019-05-29T00:37:20.188Z,73.88
2019-05-29T00:38:24.482Z,73.73
2019-05-29T00:39:28.696Z,73.83
2019-05-29T00:40:35.996Z,73.60
2019-05-29T00:41:39.206Z,73.44
2019-05-29T00:42:46.474Z,73.23
2019-05-29T00:43:49.762Z,73.52
2019-05-29T00:44:53.953Z,73.24
2019-05-29T00:45:58.254Z,73.34
2019-05-29T00:47:02.480Z,73.07
2019-05-29T00:48:07.728Z,72.92
2019-05-29T00:49:11.768Z,73.12
2019-05-29T00:50:16.158Z,72.85
2019-05-29T00:51:19.467Z,72.57
2019-05-29T00:52:23.667Z,72.46
2019-05-29T00:53:27.942Z,72.48
2019-05-29T00:54:32.232Z,72.64
2019-05-29T00:55:36.539Z,72.47
2019-05-29T00:56:40.722Z,72.67
2019-05-29T00:57:45.023Z,72.30
2019-05-29T00:58:49.258Z,72.47
2019-05-29T00:59:53.503Z,72.64
2019-05-29T01:00:57.880Z,72.92
2019-05-29T01:02:02.013Z,73.00
2019-05-29T01:03:06.351Z,73.03
2019-05-29T01:04:11.527Z,73.22
2019-05-29T01:05:16.120Z,73.16
2019-05-29T01:06:20.222Z,73.04
2019-05-29T01:07:23.364Z,72.79
2019-05-29T01:08:27.606Z,72.82
2019-05-29T01:09:31.848Z,73.07
2019-05-29T01:10:36.165Z,72.73
2019-05-29T01:11:40.398Z,72.63
2019-05-29T01:12:44.725Z,72.79
2019-05-29T01:13:48.949Z,72.66
2019-05-29T01:14:53.234Z,73.07
2019-05-29T01:15:57.551Z,73.03
2019-05-29T01:17:01.872Z,73.01
2019-05-29T01:18:06.013Z,73.07
2019-05-29T01:19:10.255Z,73.22
2019-05-29T01:20:14.475Z,73.26
2019-05-29T01:21:18.758Z,73.59
2019-05-29T01:22:22.935Z,73.50
2019-05-29T01:23:27.206Z,73.48
2019-05-29T01:24:31.452Z,73.63
2019-05-29T01:25:35.767Z,73.27
2019-05-29T01:26:39.956Z,73.55
2019-05-29T01:27:44.212Z,73.58
2019-05-29T01:28:48.477Z,73.61
2019-05-29T01:29:52.659Z,73.71
2019-05-29T01:30:56.899Z,73.64
2019-05-29T01:32:01.173Z,73.78
2019-05-29T01:33:05.430Z,73.69
2019-05-29T01:34:09.656Z,73.89
2019-05-29T01:35:13.878Z,73.95
2019-05-29T01:36:18.119Z,73.63
2019-05-29T01:37:22.395Z,73.87
2019-05-29T01:38:27.624Z,73.70
2019-05-29T01:39:30.812Z,73.64
2019-05-29T01:40:35.062Z,73.58
2019-05-29T01:41:39.393Z,73.45
2019-05-29T01:42:43.698Z,73.49
2019-05-29T01:43:47.981Z,73.37
2019-05-29T01:45:06.408Z,73.21
2019-05-29T01:45:56.443Z,73.18
2019-05-29T01:47:00.692Z,73.07
2019-05-29T01:48:05.003Z,73.05
2019-05-29T01:49:09.294Z,72.99
2019-05-29T01:50:13.481Z,72.82
2019-05-29T01:51:17.820Z,72.79
2019-05-29T01:52:22.068Z,72.75
2019-05-29T01:53:26.215Z,72.71
2019-05-29T01:54:30.501Z,72.65
2019-05-29T01:55:34.763Z,72.58
2019-05-29T01:56:38.986Z,72.67
2019-05-29T01:57:43.231Z,72.57
2019-05-29T01:58:47.499Z,72.52
2019-05-29T01:59:51.731Z,72.62
2019-05-29T02:00:55.973Z,72.76
2019-05-29T02:02:00.274Z,72.89
2019-05-29T02:03:04.518Z,72.83
2019-05-29T02:04:08.678Z,73.01
2019-05-29T02:05:12.950Z,72.74
2019-05-29T02:06:17.869Z,73.24
2019-05-29T02:07:22.458Z,73.37
2019-05-29T02:08:25.710Z,73.46
2019-05-29T02:09:29.905Z,73.42
2019-05-29T02:10:34.237Z,73.25
2019-05-29T02:11:38.529Z,73.54
2019-05-29T02:12:42.767Z,73.52
2019-05-29T02:13:47.009Z,73.57
2019-05-29T02:14:51.312Z,73.67
2019-05-29T02:15:55.542Z,73.82
2019-05-29T02:16:59.747Z,73.93
2019-05-29T02:18:04.108Z,73.75
2019-05-29T02:19:08.276Z,73.63
2019-05-29T02:20:12.482Z,73.66
2019-05-29T02:21:17.917Z,73.52
2019-05-29T02:22:21.071Z,73.59
2019-05-29T02:23:25.389Z,73.31
2019-05-29T02:24:29.568Z,73.36
2019-05-29T02:25:33.862Z,73.33
2019-05-29T02:26:41.112Z,73.22
2019-05-29T02:27:44.379Z,73.26
2019-05-29T02:28:48.666Z,73.25
2019-05-29T02:29:53.000Z,73.41
2019-05-29T02:30:57.285Z,73.34
2019-05-29T02:32:01.563Z,73.24
2019-05-29T02:33:05.889Z,73.15
2019-05-29T02:34:10.063Z,73.09
2019-05-29T02:35:14.381Z,73.11
2019-05-29T02:36:20.345Z,73.13
2019-05-29T02:37:24.328Z,73.17
2019-05-29T02:38:27.664Z,73.06
2019-05-29T02:39:31.335Z,73.19
2019-05-29T02:40:35.490Z,73.19
2019-05-29T02:41:39.660Z,73.35
2019-05-29T02:42:44.055Z,73.48
2019-05-29T02:43:48.252Z,73.53
2019-05-29T02:44:52.557Z,73.57
2019-05-29T02:45:56.835Z,73.85
2019-05-29T02:47:01.077Z,73.82
2019-05-29T02:48:05.365Z,74.08
2019-05-29T02:49:09.556Z,73.89
2019-05-29T02:50:13.777Z,73.81
2019-05-29T02:51:19.606Z,73.55
2019-05-29T02:52:24.173Z,73.41
2019-05-29T02:53:28.532Z,73.28
2019-05-29T02:54:32.257Z,73.15
2019-05-29T02:55:35.190Z,73.05
2019-05-29T02:56:42.467Z,72.97
2019-05-29T02:57:43.509Z,72.70
2019-05-29T02:58:47.830Z,72.71
2019-05-29T02:59:52.170Z,72.58
2019-05-29T03:00:56.449Z,72.42
2019-05-29T03:02:00.704Z,72.41
2019-05-29T03:03:05.015Z,72.27
2019-05-29T03:04:09.200Z,72.19
2019-05-29T03:05:13.515Z,72.09
2019-05-29T03:06:17.797Z,72.16
2019-05-29T03:07:22.301Z,72.02
2019-05-29T03:08:27.693Z,72.02
2019-05-29T03:09:30.919Z,72.07
2019-05-29T03:10:34.888Z,71.97
2019-05-29T03:11:39.097Z,71.96
2019-05-29T03:12:43.324Z,71.93
2019-05-29T03:13:47.693Z,71.81
2019-05-29T03:14:51.918Z,71.75
2019-05-29T03:16:09.883Z,71.69
2019-05-29T03:17:00.515Z,71.68
2019-05-29T03:18:04.769Z,71.61
2019-05-29T03:19:09.013Z,71.55
2019-05-29T03:20:13.257Z,71.58
2019-05-29T03:21:17.640Z,71.54
2019-05-29T03:22:21.855Z,71.70
2019-05-29T03:23:26.656Z,71.91
2019-05-29T03:24:30.826Z,72.05
2019-05-29T03:25:35.118Z,72.14
2019-05-29T03:26:38.887Z,72.22
2019-05-29T03:27:43.090Z,72.36
2019-05-29T03:28:47.329Z,72.48
2019-05-29T03:29:51.557Z,72.75
2019-05-29T03:30:55.901Z,72.53
2019-05-29T03:32:00.098Z,72.55
2019-05-29T03:33:04.334Z,72.42
2019-05-29T03:34:08.685Z,72.28
2019-05-29T03:35:12.949Z,72.19
2019-05-29T03:36:17.255Z,72.08
2019-05-29T03:37:21.571Z,72.08
2019-05-29T03:38:26.138Z,72.16
2019-05-29T03:39:30.459Z,72.30
2019-05-29T03:40:35.218Z,72.06
2019-05-29T03:41:39.127Z,71.96
2019-05-29T03:42:42.983Z,71.92
2019-05-29T03:43:47.288Z,71.89
2019-05-29T03:44:51.541Z,71.79
2019-05-29T03:45:55.797Z,71.81
2019-05-29T03:47:00.005Z,71.93
2019-05-29T03:48:04.350Z,71.82
2019-05-29T03:49:08.598Z,71.90
2019-05-29T03:50:15.634Z,71.90
2019-05-29T03:51:17.141Z,72.08
2019-05-29T03:52:21.395Z,72.11
2019-05-29T03:53:26.881Z,71.89
2019-05-29T03:54:30.826Z,71.77
2019-05-29T03:55:35.815Z,71.56
2019-05-29T03:56:39.021Z,71.34
2019-05-29T03:57:42.923Z,71.20
2019-05-29T03:58:47.136Z,70.87
2019-05-29T03:59:51.434Z,70.70
2019-05-29T04:00:55.744Z,71.03
2019-05-29T04:01:59.981Z,71.13
2019-05-29T04:03:04.209Z,71.48
2019-05-29T04:04:08.415Z,71.38
2019-05-29T04:05:12.773Z,71.57
2019-05-29T04:06:17.051Z,71.50
2019-05-29T04:07:21.261Z,71.91
2019-05-29T04:08:27.233Z,72.03
2019-05-29T04:09:31.308Z,72.02
2019-05-29T04:10:36.774Z,72.11
2019-05-29T04:11:38.423Z,72.26
2019-05-29T04:12:42.609Z,72.12
2019-05-29T04:13:46.804Z,71.94
2019-05-29T04:14:51.066Z,71.98
2019-05-29T04:15:55.307Z,71.98
2019-05-29T04:17:00.494Z,71.93
2019-05-29T04:18:03.916Z,72.05
2019-05-29T04:19:08.106Z,72.32
2019-05-29T04:20:12.443Z,71.95
2019-05-29T04:21:16.724Z,71.84
2019-05-29T04:22:21.015Z,71.70
2019-05-29T04:23:25.313Z,71.65
2019-05-29T04:24:29.837Z,71.67
2019-05-29T04:25:37.344Z,71.67
2019-05-29T04:26:38.252Z,71.57
2019-05-29T04:27:42.447Z,71.81
2019-05-29T04:28:46.776Z,72.09
2019-05-29T04:29:50.961Z,71.83
2019-05-29T04:30:55.307Z,71.87
2019-05-29T04:31:59.533Z,72.03
2019-05-29T04:33:03.808Z,71.96
2019-05-29T04:34:08.108Z,72.32
2019-05-29T04:35:12.358Z,72.23
2019-05-29T04:36:16.577Z,72.07
2019-05-29T04:37:20.883Z,72.14
2019-05-29T04:38:25.064Z,72.73
2019-05-29T04:39:30.620Z,72.80
2019-05-29T04:40:34.993Z,72.92
2019-05-29T04:41:39.248Z,72.73
2019-05-29T04:42:42.116Z,72.57
2019-05-29T04:43:46.413Z,73.15
2019-05-29T04:44:50.614Z,73.28
2019-05-29T04:45:54.879Z,73.03
2019-05-29T04:47:10.227Z,72.92
2019-05-29T04:48:03.384Z,72.73
2019-05-29T04:49:07.631Z,72.61
2019-05-29T04:50:11.904Z,72.61
2019-05-29T04:51:16.254Z,72.47
2019-05-29T04:52:20.435Z,72.42
2019-05-29T04:53:24.656Z,72.52
2019-05-29T04:54:29.343Z,72.28
2019-05-29T04:55:33.252Z,72.24
2019-05-29T04:56:37.544Z,72.54
2019-05-29T04:57:41.785Z,72.72
2019-05-29T04:58:46.110Z,72.86
2019-05-29T04:59:50.418Z,72.65
2019-05-29T05:00:58.907Z,72.55
2019-05-29T05:01:58.888Z,72.51
2019-05-29T05:03:03.227Z,72.43
2019-05-29T05:04:07.524Z,72.39
2019-05-29T05:05:11.731Z,72.32
2019-05-29T05:06:15.977Z,72.17
2019-05-29T05:07:20.322Z,72.22
2019-05-29T05:08:24.564Z,72.04
2019-05-29T05:09:29.246Z,72.32
2019-05-29T05:10:33.393Z,72.78
2019-05-29T05:11:37.605Z,72.36
2019-05-29T05:12:41.698Z,72.21
2019-05-29T05:13:45.978Z,72.19
2019-05-29T05:14:50.284Z,72.06
2019-05-29T05:15:54.607Z,72.72
2019-05-29T05:16:58.872Z,72.88
2019-05-29T05:18:03.066Z,72.63
2019-05-29T05:19:07.303Z,72.84
2019-05-29T05:20:11.587Z,72.91
2019-05-29T05:21:15.945Z,72.73
2019-05-29T05:22:20.229Z,72.53
2019-05-29T05:23:24.430Z,73.06
2019-05-29T05:24:30.067Z,72.76
2019-05-29T05:25:34.075Z,73.05
2019-05-29T05:26:38.413Z,72.66
2019-05-29T05:27:41.661Z,72.29
2019-05-29T05:28:46.755Z,72.10
2019-05-29T05:29:50.279Z,72.07
2019-05-29T05:30:54.558Z,71.72
2019-05-29T05:31:58.866Z,71.51
2019-05-29T05:33:03.104Z,71.33
2019-05-29T05:34:07.431Z,71.09
2019-05-29T05:35:14.414Z,71.11
2019-05-29T05:36:15.989Z,71.09
2019-05-29T05:37:20.209Z,70.89
2019-05-29T05:38:24.572Z,71.23
2019-05-29T05:39:28.873Z,71.04
2019-05-29T05:40:37.010Z,71.09
2019-05-29T05:41:37.546Z,71.06
2019-05-29T05:42:41.751Z,71.02
2019-05-29T05:43:46.117Z,71.25
2019-05-29T05:44:50.331Z,71.28
2019-05-29T05:45:54.669Z,71.37
2019-05-29T05:46:58.909Z,71.89
2019-05-29T05:48:03.073Z,71.65
2019-05-29T05:49:07.506Z,71.68
2019-05-29T05:50:11.811Z,71.86
2019-05-29T05:51:16.028Z,71.79
2019-05-29T05:52:20.358Z,71.69
2019-05-29T05:53:24.594Z,71.55
2019-05-29T05:54:28.856Z,71.75
2019-05-29T05:55:33.508Z,71.61
2019-05-29T05:56:37.740Z,71.28
2019-05-29T05:57:41.914Z,71.17
2019-05-29T05:58:45.949Z,71.17
2019-05-29T05:59:50.214Z,69.76
2019-05-29T06:00:54.521Z,69.49
2019-05-29T06:01:58.790Z,69.01
2019-05-29T06:03:03.047Z,69.25
2019-05-29T06:04:07.296Z,68.41
2019-05-29T06:05:11.532Z,69.15
2019-05-29T06:06:15.825Z,68.66
2019-05-29T06:07:20.161Z,68.71
2019-05-29T06:08:24.412Z,69.62
2019-05-29T06:09:28.658Z,69.21
2019-05-29T06:10:34.034Z,68.64
2019-05-29T06:11:38.246Z,67.53
2019-05-29T06:12:42.861Z,68.02
2019-05-29T06:13:45.949Z,68.07
2019-05-29T06:14:50.147Z,67.42
2019-05-29T06:15:54.463Z,66.98
2019-05-29T06:16:58.816Z,66.27
2019-05-29T06:18:19.945Z,66.34
2019-05-29T06:19:07.477Z,64.92
2019-05-29T06:20:11.748Z,62.61
2019-05-29T06:21:16.040Z,63.24
2019-05-29T06:22:20.411Z,61.89
2019-05-29T06:23:24.765Z,62.51
2019-05-29T06:24:29.085Z,62.14
2019-05-29T06:25:34.384Z,62.72
2019-05-29T06:26:37.629Z,62.99
2019-05-29T06:27:43.226Z,60.58
2019-05-29T06:28:46.292Z,60.46
2019-05-29T06:29:50.662Z,61.45
2019-05-29T06:30:54.936Z,61.53
2019-05-29T06:31:59.205Z,60.84
2019-05-29T06:33:03.620Z,60.43
2019-05-29T06:34:07.902Z,60.02
2019-05-29T06:35:12.278Z,61.69
2019-05-29T06:36:16.607Z,58.05
2019-05-29T06:37:20.982Z,57.29
2019-05-29T06:38:25.291Z,56.76
2019-05-29T06:39:29.614Z,57.02
2019-05-29T06:40:34.149Z,55.01
2019-05-29T06:41:40.008Z,55.13
2019-05-29T06:42:43.950Z,58.04
2019-05-29T06:43:47.453Z,55.80
2019-05-29T06:44:51.987Z,55.00
2019-05-29T06:45:56.371Z,53.07
2019-05-29T06:47:00.806Z,55.39
2019-05-29T06:48:05.196Z,52.86
2019-05-29T06:49:09.662Z,49.91
2019-05-29T06:50:14.013Z,50.53
2019-05-29T06:51:18.440Z,50.66
2019-05-29T06:52:22.920Z,51.08
2019-05-29T06:53:27.364Z,53.01
2019-05-29T06:54:31.666Z,52.52
2019-05-29T06:55:36.022Z,53.09
2019-05-29T06:56:40.386Z,51.58
2019-05-29T06:57:44.730Z,51.46
2019-05-29T06:58:49.193Z,49.62
2019-05-29T06:59:53.568Z,51.83
2019-05-29T07:00:57.875Z,51.46
2019-05-29T07:02:02.201Z,52.62
2019-05-29T07:03:06.490Z,53.24
2019-05-29T07:04:12.495Z,53.13
2019-05-29T07:05:15.221Z,53.81
2019-05-29T07:06:19.654Z,52.78
2019-05-29T07:07:24.103Z,51.53
2019-05-29T07:08:38.274Z,52.35
2019-05-29T07:09:32.811Z,52.49
2019-05-29T07:10:38.531Z,52.90
2019-05-29T07:11:41.593Z,52.99
2019-05-29T07:12:46.474Z,52.59
2019-05-29T07:13:50.923Z,53.35
2019-05-29T07:14:54.914Z,51.64
2019-05-29T07:15:59.264Z,52.04
2019-05-29T07:17:03.683Z,50.30
2019-05-29T07:18:08.160Z,50.31
2019-05-29T07:19:47.184Z,51.41
2019-05-29T07:20:16.917Z,47.93
2019-05-29T07:21:21.287Z,49.47
2019-05-29T07:22:25.683Z,50.85
2019-05-29T07:23:30.153Z,49.46
2019-05-29T07:24:34.496Z,48.48
2019-05-29T07:25:38.862Z,49.94
2019-05-29T07:26:43.765Z,50.04
2019-05-29T07:27:47.587Z,51.20
2019-05-29T07:29:06.810Z,50.13
2019-05-29T07:29:56.484Z,49.88
2019-05-29T07:31:03.426Z,49.94
2019-05-29T07:32:05.243Z,49.27
2019-05-29T07:33:09.571Z,49.48
2019-05-29T07:34:14.024Z,49.44
2019-05-29T07:35:18.333Z,50.51
2019-05-29T07:36:22.687Z,50.36
2019-05-29T07:37:27.027Z,50.01
2019-05-29T07:38:31.516Z,50.74
2019-05-29T07:39:35.876Z,51.62
2019-05-29T07:40:41.086Z,51.67
2019-05-29T07:41:45.709Z,52.71
2019-05-29T07:42:55.827Z,52.79
2019-05-29T07:43:53.471Z,52.87
2019-05-29T07:44:57.791Z,51.45
2019-05-29T07:46:02.245Z,52.99
2019-05-29T07:47:09.821Z,52.82
2019-05-29T07:48:10.789Z,53.10
2019-05-29T07:49:15.233Z,52.85
2019-05-29T07:50:19.672Z,51.49
2019-05-29T07:51:24.003Z,51.80
2019-05-29T07:52:28.352Z,52.96
2019-05-29T07:53:33.783Z,50.65
2019-05-29T07:54:37.188Z,50.47
2019-05-29T07:55:42.497Z,51.09
2019-05-29T07:56:46.629Z,51.44
2019-05-29T07:57:50.045Z,52.57
2019-05-29T07:59:02.414Z,52.48
2019-05-29T07:59:58.831Z,50.59
2019-05-29T08:01:12.697Z,51.06
2019-05-29T08:02:07.469Z,51.06
2019-05-29T08:03:11.830Z,51.47
2019-05-29T08:04:16.202Z,51.71
2019-05-29T08:05:20.542Z,51.83
2019-05-29T08:06:24.950Z,52.85
2019-05-29T08:07:29.290Z,53.16
2019-05-29T08:08:33.615Z,53.45
2019-05-29T08:09:39.238Z,53.55
2019-05-29T08:10:43.409Z,54.81
2019-05-29T08:11:47.689Z,54.38
2019-05-29T08:12:55.289Z,52.87
2019-05-29T08:13:55.429Z,52.46
2019-05-29T08:14:59.908Z,51.82
2019-05-29T08:16:04.249Z,51.60
2019-05-29T08:17:08.611Z,52.30
2019-05-29T08:18:12.983Z,52.96
2019-05-29T08:19:17.326Z,52.05
2019-05-29T08:20:21.710Z,52.44
2019-05-29T08:21:26.071Z,51.70
2019-05-29T08:22:34.588Z,52.69
2019-05-29T08:23:34.785Z,53.49
2019-05-29T08:24:40.649Z,54.06
2019-05-29T08:25:43.667Z,53.93
2019-05-29T08:26:48.911Z,54.56
2019-05-29T08:27:52.344Z,54.37
2019-05-29T08:28:56.822Z,54.58
2019-05-29T08:30:01.183Z,52.88
2019-05-29T08:31:05.647Z,52.89
2019-05-29T08:32:09.976Z,52.94
2019-05-29T08:33:14.450Z,52.89
2019-05-29T08:34:18.885Z,53.10
2019-05-29T08:35:23.242Z,53.90
2019-05-29T08:36:27.629Z,54.31
2019-05-29T08:37:31.989Z,53.91
2019-05-29T08:38:36.379Z,53.68
2019-05-29T08:39:41.198Z,53.99
2019-05-29T08:40:45.178Z,52.98
2019-05-29T08:42:19.295Z,51.45
2019-05-29T08:42:53.857Z,51.72
2019-05-29T08:43:58.271Z,51.11
2019-05-29T08:45:02.633Z,51.67
2019-05-29T08:46:07.018Z,51.70
2019-05-29T08:47:11.384Z,52.34
2019-05-29T08:48:15.692Z,53.58
2019-05-29T08:49:20.080Z,53.05
2019-05-29T08:50:24.430Z,52.15
2019-05-29T08:51:28.923Z,50.95
2019-05-29T08:52:33.230Z,50.43
2019-05-29T08:53:37.597Z,51.04
2019-05-29T08:54:42.140Z,52.50
2019-05-29T08:55:46.523Z,52.37
2019-05-29T08:56:50.840Z,51.63
2019-05-29T08:57:55.250Z,49.57
2019-05-29T08:58:59.601Z,50.06
2019-05-29T09:00:04.046Z,50.00
2019-05-29T09:01:08.401Z,50.16
2019-05-29T09:02:12.756Z,50.82
2019-05-29T09:03:17.154Z,51.61
2019-05-29T09:04:21.682Z,51.37
2019-05-29T09:05:26.005Z,51.40
2019-05-29T09:06:30.309Z,51.71
2019-05-29T09:07:34.701Z,51.11
2019-05-29T09:08:39.082Z,50.25
2019-05-29T09:09:43.447Z,51.01
2019-05-29T09:10:49.246Z,50.70
2019-05-29T09:11:53.623Z,51.41
2019-05-29T09:13:04.423Z,51.80
2019-05-29T09:14:00.960Z,52.23
2019-05-29T09:15:05.436Z,51.13
2019-05-29T09:16:09.729Z,50.97
2019-05-29T09:17:14.576Z,51.44
2019-05-29T09:18:19.690Z,51.34
2019-05-29T09:19:22.932Z,50.90
2019-05-29T09:20:43.505Z,51.24
2019-05-29T09:21:31.525Z,50.86
2019-05-29T09:22:35.934Z,52.78
2019-05-29T09:23:40.253Z,51.90
2019-05-29T09:24:44.644Z,49.99
2019-05-29T09:25:49.000Z,48.53
2019-05-29T09:26:53.400Z,48.59
2019-05-29T09:27:57.750Z,49.81
2019-05-29T09:29:02.112Z,50.56
2019-05-29T09:30:06.517Z,50.73
2019-05-29T09:31:10.869Z,51.21
2019-05-29T09:32:16.650Z,51.07
2019-05-29T09:33:21.419Z,50.86
2019-05-29T09:34:24.451Z,51.02
2019-05-29T09:35:28.490Z,51.87
2019-05-29T09:36:32.810Z,51.55
2019-05-29T09:37:37.183Z,51.77
2019-05-29T09:38:41.545Z,52.43
2019-05-29T09:39:45.816Z,52.13
2019-05-29T09:40:52.713Z,51.37
2019-05-29T09:41:54.708Z,51.25
2019-05-29T09:42:59.047Z,52.14
2019-05-29T09:44:03.309Z,51.67
2019-05-29T09:45:07.760Z,52.58
2019-05-29T09:46:12.080Z,52.55
2019-05-29T09:47:17.253Z,51.24
2019-05-29T09:48:23.782Z,50.18
2019-05-29T09:49:26.073Z,51.25
2019-05-29T09:50:48.804Z,50.75
2019-05-29T09:51:33.993Z,48.54
2019-05-29T09:52:38.385Z,48.88
2019-05-29T09:53:42.762Z,49.25
2019-05-29T09:54:47.115Z,49.44
2019-05-29T09:55:52.058Z,48.58
2019-05-29T09:56:56.687Z,48.67
2019-05-29T09:58:00.748Z,49.29
2019-05-29T09:59:04.576Z,49.77
2019-05-29T10:00:08.930Z,49.79
2019-05-29T10:01:22.662Z,50.30
2019-05-29T10:02:17.690Z,50.86
2019-05-29T10:03:22.142Z,50.89
2019-05-29T10:04:26.436Z,51.25
2019-05-29T10:05:30.781Z,51.53
2019-05-29T10:06:35.139Z,50.65
2019-05-29T10:07:39.485Z,49.53
2019-05-29T10:08:43.967Z,50.00
2019-05-29T10:09:48.237Z,49.25
2019-05-29T10:11:01.465Z,48.93
2019-05-29T10:12:00.899Z,49.71
2019-05-29T10:13:02.737Z,50.19
2019-05-29T10:14:05.844Z,50.27
2019-05-29T10:15:10.127Z,49.70
2019-05-29T10:16:14.472Z,49.51
2019-05-29T10:17:18.850Z,49.62
2019-05-29T10:18:32.017Z,47.81
2019-05-29T10:19:27.716Z,47.26
2019-05-29T10:20:32.006Z,49.57
2019-05-29T10:21:40.593Z,49.72
2019-05-29T10:22:40.799Z,48.99
2019-05-29T10:23:45.207Z,49.29
2019-05-29T10:24:49.598Z,49.11
2019-05-29T10:25:56.377Z,48.13
2019-05-29T10:26:59.055Z,47.53
2019-05-29T10:28:05.972Z,47.48
2019-05-29T10:29:09.414Z,47.49
2019-05-29T10:30:11.481Z,47.98
2019-05-29T10:31:15.873Z,47.86
2019-05-29T10:32:20.318Z,49.22
2019-05-29T10:33:24.712Z,49.53
2019-05-29T10:34:29.025Z,49.27
2019-05-29T10:35:33.374Z,48.81
2019-05-29T10:36:37.775Z,48.17
2019-05-29T10:37:42.776Z,48.12
2019-05-29T10:38:46.564Z,49.18
2019-05-29T10:39:51.065Z,48.69
2019-05-29T10:41:05.894Z,47.99
2019-05-29T10:41:59.615Z,47.54
2019-05-29T10:43:03.979Z,47.94
2019-05-29T10:44:12.425Z,47.23
2019-05-29T10:45:12.750Z,47.81
2019-05-29T10:46:17.232Z,48.48
2019-05-29T10:47:21.638Z,47.82
2019-05-29T10:48:25.934Z,48.65
2019-05-29T10:49:30.326Z,48.52
2019-05-29T10:50:34.671Z,48.93
2019-05-29T10:51:54.636Z,48.57
2019-05-29T10:52:43.760Z,49.42
2019-05-29T10:53:50.382Z,50.59
2019-05-29T10:54:52.464Z,50.07
2019-05-29T10:55:56.486Z,48.82
2019-05-29T10:57:00.840Z,49.51
2019-05-29T10:58:05.187Z,49.53
2019-05-29T10:59:09.572Z,48.87
2019-05-29T11:00:14.050Z,48.95
2019-05-29T11:01:18.386Z,47.70
2019-05-29T11:02:22.766Z,48.48
2019-05-29T11:03:27.241Z,45.28
2019-05-29T11:04:31.611Z,45.46
2019-05-29T11:05:35.990Z,46.49
2019-05-29T11:06:41.259Z,46.85
2019-05-29T11:07:45.717Z,47.10
2019-05-29T11:08:50.032Z,46.82
2019-05-29T11:09:54.255Z,46.47
2019-05-29T11:10:57.949Z,48.04
2019-05-29T11:12:02.316Z,48.51
2019-05-29T11:13:06.726Z,48.52
2019-05-29T11:14:11.105Z,48.20
2019-05-29T11:15:21.330Z,47.04
2019-05-29T11:16:19.936Z,44.95
2019-05-29T11:17:24.414Z,45.20
2019-05-29T11:18:28.729Z,44.68
2019-05-29T11:19:33.135Z,42.08
2019-05-29T11:20:37.544Z,41.75
2019-05-29T11:21:41.967Z,42.27
2019-05-29T11:22:47.521Z,42.98
2019-05-29T11:23:51.840Z,42.47
2019-05-29T11:24:56.631Z,41.33
2019-05-29T11:25:59.768Z,41.44
2019-05-29T11:27:04.085Z,42.60
2019-05-29T11:28:08.462Z,43.37
2019-05-29T11:29:12.826Z,43.83
2019-05-29T11:30:17.225Z,43.37
2019-05-29T11:31:21.587Z,43.30
2019-05-29T11:32:25.936Z,42.35
2019-05-29T11:33:30.314Z,42.35
2019-05-29T11:34:34.671Z,43.73
2019-05-29T11:35:54.808Z,43.21
2019-05-29T11:36:43.441Z,44.17
2019-05-29T11:37:47.801Z,43.48
2019-05-29T11:38:52.602Z,43.84
2019-05-29T11:39:56.865Z,44.60
2019-05-29T11:41:24.686Z,45.49
2019-05-29T11:42:05.359Z,45.19
2019-05-29T11:43:09.749Z,44.39
2019-05-29T11:44:14.165Z,43.73
2019-05-29T11:45:18.594Z,43.28
2019-05-29T11:46:22.959Z,42.87
2019-05-29T11:47:27.435Z,41.64
2019-05-29T11:48:31.796Z,42.46
2019-05-29T11:49:36.283Z,42.30
2019-05-29T11:50:40.731Z,40.73
2019-05-29T11:51:45.063Z,40.50
2019-05-29T11:52:50.309Z,41.53
2019-05-29T11:53:53.877Z,41.00
2019-05-29T11:55:00.108Z,42.45
2019-05-29T11:56:02.601Z,42.44
2019-05-29T11:57:07.001Z,41.24
2019-05-29T11:58:11.532Z,41.55
2019-05-29T11:59:15.874Z,40.88
2019-05-29T12:00:21.251Z,41.88
2019-05-29T12:01:24.861Z,41.09
2019-05-29T12:02:29.266Z,39.06
2019-05-29T12:03:33.669Z,38.89
2019-05-29T12:04:41.055Z,39.50
2019-05-29T12:05:44.708Z,41.38
2019-05-29T12:06:49.027Z,40.66
2019-05-29T12:07:53.650Z,39.31
2019-05-29T12:08:58.107Z,39.84
2019-05-29T12:10:04.422Z,41.04
2019-05-29T12:11:07.330Z,41.16
2019-05-29T12:12:11.252Z,40.43
2019-05-29T12:13:15.722Z,39.01
2019-05-29T12:14:20.077Z,39.71
2019-05-29T12:15:24.536Z,41.12
2019-05-29T12:16:28.941Z,40.94
2019-05-29T12:17:33.387Z,40.72
2019-05-29T12:18:37.727Z,40.69
2019-05-29T12:19:42.145Z,40.78
2019-05-29T12:20:46.527Z,40.59
2019-05-29T12:21:52.297Z,40.74
2019-05-29T12:23:18.631Z,41.40
2019-05-29T12:24:00.292Z,41.43
2019-05-29T12:25:04.122Z,41.89
2019-05-29T12:26:21.789Z,42.10
2019-05-29T12:27:12.903Z,42.81
2019-05-29T12:28:17.247Z,42.79
2019-05-29T12:29:21.631Z,43.27
2019-05-29T12:30:26.007Z,43.58
2019-05-29T12:31:30.453Z,42.47
2019-05-29T12:32:34.879Z,41.01
2019-05-29T12:33:39.292Z,40.42
2019-05-29T12:34:53.298Z,41.38
2019-05-29T12:35:50.293Z,40.36
2019-05-29T12:36:53.319Z,40.07
2019-05-29T12:37:57.396Z,41.46
2019-05-29T12:39:02.207Z,40.35
2019-05-29T12:40:09.027Z,40.41
2019-05-29T12:41:12.470Z,39.70
2019-05-29T12:42:16.873Z,39.58
2019-05-29T12:43:27.126Z,39.68
2019-05-29T12:44:25.573Z,40.46
2019-05-29T12:45:30.070Z,40.25
2019-05-29T12:46:34.416Z,41.13
2019-05-29T12:47:38.881Z,41.20
2019-05-29T12:48:43.304Z,41.20
2019-05-29T12:49:47.644Z,42.08
2019-05-29T12:50:53.885Z,42.72
2019-05-29T12:51:57.604Z,42.51
2019-05-29T12:53:01.743Z,39.72
2019-05-29T12:54:05.364Z,40.62
2019-05-29T12:55:09.560Z,40.82
2019-05-29T12:56:14.008Z,40.62
2019-05-29T12:57:18.417Z,41.36
2019-05-29T12:58:22.812Z,42.23
2019-05-29T12:59:27.345Z,41.92
2019-05-29T13:00:31.672Z,41.52
2019-05-29T13:01:36.048Z,43.06
2019-05-29T13:02:40.517Z,43.22
2019-05-29T13:03:45.938Z,42.68
2019-05-29T13:05:07.012Z,42.38
2019-05-29T13:05:54.167Z,43.49
2019-05-29T13:06:58.648Z,42.75
2019-05-29T13:08:03.114Z,43.19
2019-05-29T13:09:06.766Z,43.28
2019-05-29T13:10:11.157Z,43.66
2019-05-29T13:11:15.571Z,43.15
2019-05-29T13:12:19.896Z,42.70
2019-05-29T13:13:24.346Z,41.75
2019-05-29T13:14:28.821Z,40.60
2019-05-29T13:15:33.179Z,39.93
2019-05-29T13:16:37.571Z,42.34
2019-05-29T13:17:42.100Z,41.92
2019-05-29T13:18:46.534Z,41.48
2019-05-29T13:19:50.862Z,41.36
2019-05-29T13:20:55.246Z,41.59
2019-05-29T13:21:59.647Z,42.65
2019-05-29T13:23:05.453Z,41.79
2019-05-29T13:24:11.193Z,42.81
2019-05-29T13:25:12.828Z,43.66
2019-05-29T13:26:17.254Z,43.60
2019-05-29T13:27:21.601Z,43.54
2019-05-29T13:28:26.082Z,43.90
2019-05-29T13:29:30.433Z,43.17
2019-05-29T13:30:34.819Z,43.19
2019-05-29T13:31:39.197Z,43.04
2019-05-29T13:32:43.831Z,43.02
2019-05-29T13:33:47.967Z,42.78
2019-05-29T13:34:52.396Z,43.99
2019-05-29T13:35:58.002Z,43.94
2019-05-29T13:37:04.752Z,43.86
2019-05-29T13:38:08.540Z,44.19
2019-05-29T13:39:12.051Z,44.64
2019-05-29T13:40:16.330Z,44.02
2019-05-29T13:41:20.763Z,44.12
2019-05-29T13:42:25.161Z,44.84
2019-05-29T13:43:29.535Z,44.54
2019-05-29T13:44:33.903Z,44.57
2019-05-29T13:45:38.271Z,44.30
2019-05-29T13:46:42.682Z,45.00
2019-05-29T13:47:47.067Z,45.14
2019-05-29T13:48:51.452Z,45.09